Hauptseite
METAR-TAF:

METAR-TAF

Flughäfen :

Lugano, Schweiz

Flughafen Lugano-Agno

Breite: 46-00N, Länge: 008-58E, Höhe: 273 m

Beobachtung

Neuester Wetterbericht von vor 25 Minuten, um 23:50 UTC
Wind 3 kt aus unterschiedlichen Richtungen
Temperatur 6°C
Luftfeuchtigkeit 49%
Luftdruck 1018 hPa
Sichtweite 10 km oder mehr
keine Wolken unter 1500 m und keine Kumulonimbus oder Gewitterwolken

METAR: LSZA 192350Z AUTO VRB03KT CAVOK 06/M04 Q1018

Zeit: 01:15 (00:15 UTC)

Prognose

Neuester Wetterbericht von vor 9 Stunden und 50 Minuten, um 14:25 UTC
Gültige Prognose vom 19 um 15 UTC bis 19 um 24 UTC
Wind 12 kt aus Nord
Sichtweite 10 km oder mehr
Leicht bewölkt in der Höhe von 8000 ft
Übergehend zu
vom 19 um 20 UTC bis 19 um 22 UTC
Wind 3 kt aus unterschiedlichen Richtungen

TAF: LSZA 191425Z 1915/1924 01012KT 9999 FEW080 BECMG 1920/1922 VRB03KT

Wetterbeobachtungen und Prognosen von mehr als 4000 Flughäfen (METAR und TAF Bericht).

Die verfügbaren Stationen werden durch gelbe und rote Markierungen auf der Karte dargestellt.

Führen Sie die Maus auf sie, um den Namen der Station zu sehen.

Darauf klicken, um die Beobachtung von Wetterbeobachtungen und Prognosen zu sehen.

Um die Karte zu ändern : klicken Sie auf den grünen Tasten mit einem schwarzen Kreuz Zum Vergrößern, auf den grünen Button mit einem Gedankenstrich zu verkleinern, oder auf die grünen Pfeile für benachbarte Karten.


METAR-TAF: